Weather observations for the past three days for
Pontiac, Oakland County International Airport
Imperial (Metric)
Date Time (edt) Wind (mph) Vis. (mi.) Weather Sky Cond. Temperature (ºF) Relative Humidity Wind Chill (°F) Heat Index (°F) Pressure Precipitation (in)
Air Dwpt 6 hour altimeter (in) sea level (mb) 1 hr 3 hr 6 hr
Max. Min.
05 23:53 NW 7 10.00 Overcast OVC090 48.6 31.3 51% 46 29.78 0.0
05 22:53 W 9 10.00 Overcast OVC110 50.4 29.5 45% 29.78 0.0
05 21:53 NW 8 10.00 Overcast FEW070 OVC120 50.4 27.7 42% 29.77 0.0
05 20:53 W 12 10.00 Overcast FEW070 OVC140 52.2 25.9 36% 29.76 0.0
05 19:53 W 13 10.00 Overcast SCT070 OVC140 53.8 27.7 37% 29.74 0.0
05 18:53 W 10 10.00 Overcast SCT070 OVC140 53.8 32.7 45% 29.75 0.0
05 17:53 W 15 10.00 Overcast SCT035 OVC070 53.8 38.1 56% 29.75 0.0
05 16:53 NW 12 10.00 Overcast SCT035 OVC070 53.8 38.1 56% 29.75 0.0
05 15:53 W 12 G 21 10.00 Overcast SCT035 OVC070 55.6 38.1 52% 29.75 0.0
05 14:53 W 17 G 23 10.00 Overcast BKN035 OVC070 55.6 39.9 56% 29.75 0.0
05 13:53 W 10 10.00 Overcast SCT024 BKN049 OVC100 53.4 39.9 60% 29.73 0.0
05 12:53 SW 9 10.00 Overcast SCT047 BKN065 OVC095 52.3 44.1 74% 29.73 0.0
05 11:53 NW 10 9.00 Light Rain FEW040 SCT060 OVC080 51.8 42.3 70% 29.73 0.0
05 10:53 NW 8 10.00 Overcast SCT075 BKN090 OVC120 53.8 41.5 63% 29.7 0.0
05 09:53 NW 14 10.00 Overcast FEW030 BKN090 OVC120 56.1 43.7 63% 29.69 0.0
05 08:53 W 13 10.00 Mostly Cloudy FEW030 SCT090 BKN250 57.4 43.2 59% 29.64 0.0
05 07:53 W 13 10.00 Mostly Cloudy FEW080 SCT110 BKN250 55.9 46.9 72% 29.63 0.0
05 06:53 W 10 10.00 Mostly Cloudy FEW080 BKN120 BKN250 55.9 50.2 81% 29.59 0.0
05 05:53 W 12 9.00 Mostly Cloudy FEW040 SCT150 BKN250 55.2 52.3 90% 29.57 0.0
04 23:53 SW 13 G 22 10.00 Mostly Cloudy FEW150 BKN250 64.8 52 63% 29.52 0.0
04 22:53 SW 7 10.00 Mostly Cloudy FEW150 BKN250 63 52 68% 29.53 0.0
04 21:53 SW 10 G 20 10.00 Mostly Cloudy FEW080 SCT150 BKN250 63 52 68% 29.53 0.0
04 20:53 SW 7 10.00 Overcast FEW035 SCT080 BKN150 OVC250 61.2 53.6 76% 29.52 0.0
04 19:53 S 20 G 32 10.00 Thunderstorm Light Rain BKN080CB BKN150 OVC200 72 47.1 41% 29.5 0.0
04 18:53 W 12 G 22 10.00 Mostly Cloudy FEW060 BKN250 73 46.2 39% 29.49 0.0
04 17:53 SW 16 G 29 10.00 Mostly Cloudy SCT060 BKN250 73.9 43.3 33% 29.52 0.0
04 16:53 SW 17 G 32 10.00 Mostly Cloudy SCT060 BKN250 74.7 39.7 28% 29.53 0.0
04 15:53 SW 16 G 32 10.00 Mostly Cloudy FEW050 BKN250 74.7 36.1 25% 29.54 0.0
04 14:53 SW 15 G 24 10.00 Mostly Cloudy FEW050 BKN250 74.7 36.1 25% 29.56 0.0
04 13:53 SW 23 G 30 10.00 Partly Cloudy and Breezy FEW050 SCT250 73.6 36 25% 29.58 0.0
04 12:53 SW 14 G 29 10.00 A Few Clouds FEW050 FEW250 71.4 39.4 31% 29.6 0.0
04 11:53 SW 12 G 22 10.00 A Few Clouds FEW100 FEW250 65.8 41.5 41% 29.63 0.0
04 10:53 SW 10 10.00 A Few Clouds FEW250 62.1 43 50% 29.65 0.0
04 09:53 SW 9 G 20 10.00 A Few Clouds FEW250 56.7 42.6 60% 29.66 0.0
04 08:53 SW 9 10.00 A Few Clouds FEW250 53.4 41.9 65% 29.67 0.0
04 07:53 SW 12 10.00 Partly Cloudy FEW030 SCT250 52.3 40.8 65% 29.68 0.0
04 06:53 SW 7 10.00 Partly Cloudy FEW025 SCT250 47.3 38.7 72% 44 29.67 0.0
04 05:53 SW 9 10.00 A Few Clouds FEW250 46.9 37.9 71% 43 29.67 0.0
03 23:53 SW 13 G 21 10.00 Mostly Cloudy BKN070 BKN100 51.8 37.4 58% 29.77 0.0
03 22:53 SW 12 G 22 10.00 Mostly Cloudy BKN080 BKN110 51.8 37.4 58% 29.79 0.0
03 21:53 SW 13 G 21 10.00 Partly Cloudy SCT070 SCT100 53.6 37.4 54% 29.79 0.0
03 20:53 SW 10 G 21 10.00 Partly Cloudy SCT100 53.6 37.4 54% 29.79 0.0
03 19:53 W 18 G 26 10.00 Mostly Cloudy FEW070 BKN090 57.7 35.6 44% 29.78 0.0
03 18:53 W 18 G 29 10.00 Overcast BKN070 OVC090 59.5 33.8 38% 29.79 0.0
03 17:53 SW 18 G 32 10.00 Overcast BKN075 OVC090 61.2 32 33% 29.79 0.0
03 16:53 SW 14 G 29 10.00 Mostly Cloudy BKN075 BKN100 BKN200 62.2 32 32% 29.79 0.0
03 15:53 W 22 G 32 10.00 Mostly Cloudy and Breezy SCT070 BKN100 BKN200 61.3 30.2 31% 29.8 0.0
03 14:53 W 23 G 33 10.00 Partly Cloudy and Breezy FEW060 SCT100 SCT200 62.6 30.2 30% 29.82 0.0
03 13:53 W 23 G 32 10.00 Mostly Cloudy and Breezy FEW037 BKN085 60.8 30.2 31% 29.85 0.0
03 12:53 W 17 G 30 10.00 Overcast FEW065 BKN070 OVC080 57.2 30.2 36% 29.88 0.0
03 11:53 W 15 G 25 10.00 Overcast BKN080 OVC110 55.4 28.4 36% 29.9 0.0
03 10:53 W 15 G 30 10.00 Mostly Cloudy BKN080 BKN110 BKN250 57.2 28.4 33% 29.9 0.0
03 09:53 W 18 G 24 10.00 Mostly Cloudy FEW120 BKN250 53.6 28.4 38% 29.91 0.0
03 08:53 W 10 10.00 Partly Cloudy FEW120 SCT250 46.4 26.6 46% 42 29.91 0.0
03 07:53 W 10 10.00 Partly Cloudy SCT120 SCT250 42.8 24.8 49% 38 29.92 0.0
03 06:53 SW 8 10.00 A Few Clouds FEW100 FEW250 39.2 24.8 56% 34 29.91 0.0
03 05:53 SW 6 10.00 A Few Clouds FEW100 37.4 24.8 60% 33 29.93 0.0
Date Time (edt) Wind (mph) Vis. (mi.) Weather Sky Cond. Air Dwpt Max. Min. Relative Humidity Wind Chill (°F) Heat Index (°F) altimeter (in) sea level (mb) 1 hr 3 hr 6 hr
6 hour
Temperature (ºF) Pressure Precipitation (in)